createdAt,value
2017-11-18T00:00:28.940Z,-1.18
2017-11-18T00:01:28.808Z,-1.12
2017-11-18T00:02:28.674Z,-1.24
2017-11-18T00:03:28.543Z,-1.24
2017-11-18T00:04:28.410Z,-1.25
2017-11-18T00:05:28.279Z,-1.13
2017-11-18T00:06:28.144Z,-1.38
2017-11-18T00:07:28.014Z,-1.42
2017-11-18T00:08:27.883Z,-1.59
2017-11-18T00:09:27.749Z,-1.60
2017-11-18T00:10:27.614Z,-1.59
2017-11-18T00:11:27.485Z,-1.53
2017-11-18T00:12:27.352Z,-1.64
2017-11-18T00:13:27.223Z,-1.63
2017-11-18T00:14:27.088Z,-1.63
2017-11-18T00:15:26.957Z,-1.63
2017-11-18T00:16:26.826Z,-1.60
2017-11-18T00:17:26.693Z,-1.64
2017-11-18T00:18:26.559Z,-1.60
2017-11-18T00:19:26.429Z,-1.66
2017-11-18T00:20:26.297Z,-1.63
2017-11-18T00:21:26.164Z,-1.66
2017-11-18T00:22:26.033Z,-1.70
2017-11-18T00:23:25.918Z,-1.59
2017-11-18T00:24:25.770Z,-1.67
2017-11-18T00:25:25.637Z,-1.75
2017-11-18T00:26:25.504Z,-1.74
2017-11-18T00:27:25.374Z,-1.72
2017-11-18T00:28:25.243Z,-1.69
2017-11-18T00:29:25.110Z,-1.80
2017-11-18T00:30:24.977Z,-1.84
2017-11-18T00:31:24.846Z,-1.82
2017-11-18T00:32:24.717Z,-1.90
2017-11-18T00:33:24.580Z,-1.95
2017-11-18T00:34:24.452Z,-1.90
2017-11-18T00:35:24.317Z,-1.90
2017-11-18T00:36:24.189Z,-1.96
2017-11-18T00:37:24.052Z,-1.87
2017-11-18T00:38:23.919Z,-1.78
2017-11-18T00:39:23.787Z,-1.74
2017-11-18T00:40:25.619Z,-1.70
2017-11-18T00:41:23.523Z,-1.77
2017-11-18T00:42:23.393Z,-1.74
2017-11-18T00:43:23.260Z,-1.72
2017-11-18T00:44:23.129Z,-1.72
2017-11-18T00:45:22.995Z,-1.70
2017-11-18T00:46:22.865Z,-1.80
2017-11-18T00:47:22.734Z,-1.75
2017-11-18T00:48:22.601Z,-1.82
2017-11-18T00:49:22.468Z,-1.81
2017-11-18T00:50:22.332Z,-1.81
2017-11-18T00:51:22.210Z,-1.81
2017-11-18T00:52:22.073Z,-1.81
2017-11-18T00:53:21.939Z,-1.78
2017-11-18T00:54:21.810Z,-1.84
2017-11-18T00:55:21.675Z,-1.84
2017-11-18T00:56:21.550Z,-1.82
2017-11-18T00:57:21.413Z,-1.82
2017-11-18T00:58:21.279Z,-1.81
2017-11-18T00:59:21.145Z,-1.87
2017-11-18T01:00:21.017Z,-1.87
2017-11-18T01:01:20.883Z,-1.85
2017-11-18T01:02:20.750Z,-1.82
2017-11-18T01:03:20.620Z,-1.90
2017-11-18T01:04:20.487Z,-1.88
2017-11-18T01:05:20.355Z,-1.93
2017-11-18T01:06:20.228Z,-1.90
2017-11-18T01:07:20.086Z,-1.95
2017-11-18T01:08:19.958Z,-1.85
2017-11-18T01:09:19.825Z,-1.88
2017-11-18T01:10:19.691Z,-1.93
2017-11-18T01:11:19.558Z,-1.93
2017-11-18T01:12:19.432Z,-1.96
2017-11-18T01:13:19.296Z,-1.96
2017-11-18T01:14:19.164Z,-1.93
2017-11-18T01:15:19.031Z,-1.95
2017-11-18T01:16:18.900Z,-1.92
2017-11-18T01:17:18.767Z,-1.93
2017-11-18T01:18:18.635Z,-1.88
2017-11-18T01:19:18.504Z,-1.96
2017-11-18T01:20:18.371Z,-1.95
2017-11-18T01:21:18.239Z,-1.96
2017-11-18T01:22:18.106Z,-1.88
2017-11-18T01:23:17.974Z,-1.96
2017-11-18T01:24:17.847Z,-1.87
2017-11-18T01:25:17.711Z,-1.96
2017-11-18T01:26:17.578Z,-1.92
2017-11-18T01:27:17.443Z,-1.90
2017-11-18T01:28:17.310Z,-1.93
2017-11-18T01:29:17.183Z,-1.85
2017-11-18T01:30:17.046Z,-1.85
2017-11-18T01:31:16.917Z,-1.88
2017-11-18T01:32:16.791Z,-1.90
2017-11-18T01:33:16.651Z,-1.95
2017-11-18T01:34:16.518Z,-1.87
2017-11-18T01:35:16.385Z,-1.92
2017-11-18T01:36:16.254Z,-1.87
2017-11-18T01:37:16.122Z,-1.93
2017-11-18T01:38:15.992Z,-1.87
2017-11-18T01:39:15.857Z,-1.88
2017-11-18T01:40:15.724Z,-1.95
2017-11-18T01:41:15.595Z,-1.88
2017-11-18T01:42:15.460Z,-1.96
2017-11-18T01:43:15.344Z,-1.96
2017-11-18T01:44:15.197Z,-1.90
2017-11-18T01:45:15.066Z,-2.00
2017-11-18T01:46:14.933Z,-2.00
2017-11-18T01:47:14.798Z,-2.03
2017-11-18T01:48:14.667Z,-1.92
2017-11-18T01:49:14.537Z,-2.13
2017-11-18T01:50:14.405Z,-2.16
2017-11-18T01:51:14.274Z,-2.00
2017-11-18T01:52:14.137Z,-2.03
2017-11-18T01:53:14.005Z,-1.92
2017-11-18T01:54:13.880Z,-1.93
2017-11-18T01:55:13.743Z,-1.98
2017-11-18T01:56:13.612Z,-1.88
2017-11-18T01:57:13.477Z,-1.90
2017-11-18T01:58:13.347Z,-1.88
2017-11-18T01:59:13.216Z,-1.92
2017-11-18T02:00:13.083Z,-1.95
2017-11-18T02:01:12.951Z,-1.93
2017-11-18T02:02:12.817Z,-1.95
2017-11-18T02:03:12.724Z,-1.85
2017-11-18T02:04:12.556Z,-1.81
2017-11-18T02:05:12.421Z,-1.87
2017-11-18T02:06:12.291Z,-1.84
2017-11-18T02:07:12.156Z,-1.81
2017-11-18T02:08:12.026Z,-1.87
2017-11-18T02:09:11.892Z,-1.84
2017-11-18T02:10:11.758Z,-1.85
2017-11-18T02:11:11.626Z,-1.82
2017-11-18T02:12:11.493Z,-1.84
2017-11-18T02:13:11.361Z,-1.82
2017-11-18T02:14:11.229Z,-1.74
2017-11-18T02:15:11.096Z,-1.87
2017-11-18T02:16:10.964Z,-1.85
2017-11-18T02:17:10.834Z,-1.85
2017-11-18T02:18:10.697Z,-1.84
2017-11-18T02:19:10.566Z,-1.85
2017-11-18T02:20:10.433Z,-1.93
2017-11-18T02:21:10.302Z,-1.93
2017-11-18T02:22:10.170Z,-1.85
2017-11-18T02:23:10.038Z,-1.92
2017-11-18T02:24:09.907Z,-1.99
2017-11-18T02:25:09.773Z,-2.10
2017-11-18T02:26:09.636Z,-2.00
2017-11-18T02:27:09.508Z,-2.08
2017-11-18T02:28:09.380Z,-2.10
2017-11-18T02:29:09.240Z,-2.14
2017-11-18T02:30:09.113Z,-2.10
2017-11-18T02:31:08.979Z,-2.16
2017-11-18T02:32:08.846Z,-2.14
2017-11-18T02:33:08.722Z,-2.08
2017-11-18T02:34:08.582Z,-2.05
2017-11-18T02:35:08.462Z,-1.95
2017-11-18T02:36:08.318Z,-1.87
2017-11-18T02:37:08.186Z,-1.84
2017-11-18T02:38:08.055Z,-1.74
2017-11-18T02:39:07.919Z,-1.72
2017-11-18T02:40:07.790Z,-1.82
2017-11-18T02:41:07.657Z,-1.88
2017-11-18T02:42:07.521Z,-1.92
2017-11-18T02:43:07.403Z,-1.93
2017-11-18T02:44:07.259Z,-2.03
2017-11-18T02:45:07.129Z,-1.96
2017-11-18T02:46:06.991Z,-2.03
2017-11-18T02:47:06.863Z,-2.06
2017-11-18T02:48:06.727Z,-2.05
2017-11-18T02:49:06.596Z,-2.05
2017-11-18T02:50:06.465Z,-2.08
2017-11-18T02:51:06.334Z,-2.08
2017-11-18T02:52:06.208Z,-2.05
2017-11-18T02:53:06.068Z,-2.00
2017-11-18T02:54:05.937Z,-2.11
2017-11-18T02:55:05.800Z,-2.13
2017-11-18T02:56:05.672Z,-2.05
2017-11-18T02:57:05.538Z,-2.10
2017-11-18T02:58:05.404Z,-2.08
2017-11-18T02:59:05.274Z,-2.14
2017-11-18T03:00:05.147Z,-2.11
2017-11-18T03:01:05.010Z,-2.16
2017-11-18T03:02:04.876Z,-2.13
2017-11-18T03:03:04.745Z,-2.20
2017-11-18T03:04:04.613Z,-2.16
2017-11-18T03:05:04.480Z,-2.23
2017-11-18T03:06:04.347Z,-2.24
2017-11-18T03:07:04.216Z,-2.20
2017-11-18T03:08:04.085Z,-2.26
2017-11-18T03:09:03.950Z,-2.40
2017-11-18T03:10:03.826Z,-2.36
2017-11-18T03:11:03.686Z,-2.32
2017-11-18T03:12:03.555Z,-2.16
2017-11-18T03:13:03.426Z,-2.17
2017-11-18T03:14:03.289Z,-2.18
2017-11-18T03:15:03.156Z,-2.20
2017-11-18T03:16:03.027Z,-2.17
2017-11-18T03:17:02.895Z,-2.14
2017-11-18T03:18:02.760Z,-2.16
2017-11-18T03:19:02.627Z,-2.13
2017-11-18T03:20:02.493Z,-2.06
2017-11-18T03:21:02.363Z,-2.10
2017-11-18T03:22:02.228Z,-2.14
2017-11-18T03:23:02.096Z,-2.06
2017-11-18T03:24:01.967Z,-2.08
2017-11-18T03:25:01.834Z,-2.14
2017-11-18T03:26:01.698Z,-2.14
2017-11-18T03:27:01.569Z,-2.11
2017-11-18T03:28:01.432Z,-2.11
2017-11-18T03:29:01.300Z,-2.28
2017-11-18T03:30:01.177Z,-2.23
2017-11-18T03:31:01.037Z,-2.38
2017-11-18T03:32:00.906Z,-2.32
2017-11-18T03:33:00.773Z,-2.40
2017-11-18T03:34:00.637Z,-2.32
2017-11-18T03:35:00.511Z,-2.32
2017-11-18T03:36:00.373Z,-2.38
2017-11-18T03:37:00.242Z,-2.32
2017-11-18T03:38:00.109Z,-2.43
2017-11-18T03:38:59.974Z,-2.40
2017-11-18T03:39:59.844Z,-2.38
2017-11-18T03:40:59.710Z,-2.28
2017-11-18T03:41:59.578Z,-2.20
2017-11-18T03:42:59.446Z,-2.23
2017-11-18T03:43:59.317Z,-2.21
2017-11-18T03:44:59.181Z,-2.32
2017-11-18T03:45:59.047Z,-2.26
2017-11-18T03:46:58.916Z,-2.26
2017-11-18T03:47:58.783Z,-2.32
2017-11-18T03:48:58.655Z,-2.35
2017-11-18T03:49:58.517Z,-2.43
2017-11-18T03:50:58.387Z,-2.39
2017-11-18T03:51:58.252Z,-2.39
2017-11-18T03:52:58.122Z,-2.24
2017-11-18T03:53:57.991Z,-2.23
2017-11-18T03:54:57.859Z,-2.28
2017-11-18T03:55:57.722Z,-2.29
2017-11-18T03:56:57.590Z,-2.40
2017-11-18T03:57:57.458Z,-2.33
2017-11-18T03:58:57.324Z,-2.35
2017-11-18T03:59:57.194Z,-2.38
2017-11-18T04:00:57.061Z,-2.43
2017-11-18T04:01:56.925Z,-2.39
2017-11-18T04:02:56.808Z,-2.50
2017-11-18T04:03:56.662Z,-2.57
2017-11-18T04:04:56.529Z,-2.50
2017-11-18T04:05:56.397Z,-2.50
2017-11-18T04:06:56.264Z,-2.48
2017-11-18T04:07:56.134Z,-2.53
2017-11-18T04:08:56.001Z,-2.53
2017-11-18T04:09:55.870Z,-2.50
2017-11-18T04:10:55.734Z,-2.50
2017-11-18T04:11:55.604Z,-2.57
2017-11-18T04:12:55.473Z,-2.60
2017-11-18T04:13:55.341Z,-2.57
2017-11-18T04:14:55.209Z,-2.40
2017-11-18T04:15:55.074Z,-2.42
2017-11-18T04:16:54.942Z,-2.42
2017-11-18T04:17:54.812Z,-2.48
2017-11-18T04:18:54.690Z,-2.54
2017-11-18T04:19:54.546Z,-2.53
2017-11-18T04:20:54.412Z,-2.50
2017-11-18T04:21:54.285Z,-2.39
2017-11-18T04:22:54.146Z,-2.42
2017-11-18T04:23:54.015Z,-2.43
2017-11-18T04:24:53.883Z,-2.63
2017-11-18T04:25:53.753Z,-2.68
2017-11-18T04:26:53.616Z,-2.75
2017-11-18T04:27:53.484Z,-2.60
2017-11-18T04:28:53.352Z,-2.54
2017-11-18T04:29:53.226Z,-2.47
2017-11-18T04:30:53.088Z,-2.29
2017-11-18T04:31:52.956Z,-2.26
2017-11-18T04:32:52.822Z,-2.21
2017-11-18T04:33:52.691Z,-2.40
2017-11-18T04:34:52.556Z,-2.38
2017-11-18T04:35:52.421Z,-2.43
2017-11-18T04:36:52.289Z,-2.56
2017-11-18T04:37:52.163Z,-2.39
2017-11-18T04:38:52.027Z,-2.28
2017-11-18T04:39:51.894Z,-2.28
2017-11-18T04:40:51.759Z,-2.40
2017-11-18T04:41:51.626Z,-2.40
2017-11-18T04:42:51.493Z,-2.48
2017-11-18T04:43:51.361Z,-2.53
2017-11-18T04:44:51.230Z,-2.54
2017-11-18T04:45:51.094Z,-2.53
2017-11-18T04:46:50.968Z,-2.50
2017-11-18T04:47:50.827Z,-2.50
2017-11-18T04:48:50.697Z,-2.56
2017-11-18T04:49:50.562Z,-2.53
2017-11-18T04:50:50.430Z,-2.53
2017-11-18T04:51:50.296Z,-2.54
2017-11-18T04:52:50.164Z,-2.63
2017-11-18T04:53:50.032Z,-2.60
2017-11-18T04:54:49.898Z,-2.60
2017-11-18T04:55:49.766Z,-2.54
2017-11-18T04:56:49.634Z,-2.50
2017-11-18T04:57:49.498Z,-2.56
2017-11-18T04:58:49.372Z,-2.45
2017-11-18T04:59:49.237Z,-2.48
2017-11-18T05:00:49.104Z,-2.40
2017-11-18T05:01:48.971Z,-2.54
2017-11-18T05:02:48.836Z,-2.56
2017-11-18T05:03:48.704Z,-2.43
2017-11-18T05:04:48.571Z,-2.48
2017-11-18T05:05:48.439Z,-2.48
2017-11-18T05:06:48.306Z,-2.40
2017-11-18T05:07:48.178Z,-2.40
2017-11-18T05:08:48.040Z,-2.33
2017-11-18T05:09:47.910Z,-2.42
2017-11-18T05:10:47.774Z,-2.36
2017-11-18T05:11:47.654Z,-2.42
2017-11-18T05:12:47.511Z,-2.43
2017-11-18T05:13:47.379Z,-2.50
2017-11-18T05:14:47.247Z,-2.48
2017-11-18T05:15:47.116Z,-2.47
2017-11-18T05:16:46.981Z,-2.39
2017-11-18T05:17:46.847Z,-2.24
2017-11-18T05:18:46.715Z,-2.06
2017-11-18T05:19:46.585Z,-2.06
2017-11-18T05:20:46.452Z,-2.06
2017-11-18T05:21:46.320Z,-2.17
2017-11-18T05:22:46.194Z,-2.21
2017-11-18T05:23:46.053Z,-2.24
2017-11-18T05:24:45.920Z,-2.29
2017-11-18T05:25:45.787Z,-2.39
2017-11-18T05:26:45.673Z,-2.45
2017-11-18T05:27:45.523Z,-2.33
2017-11-18T05:28:45.393Z,-2.36
2017-11-18T05:29:45.257Z,-2.47
2017-11-18T05:30:45.124Z,-2.39
2017-11-18T05:31:45.002Z,-2.50
2017-11-18T05:32:44.857Z,-2.51
2017-11-18T05:33:44.727Z,-2.54
2017-11-18T05:34:44.597Z,-2.56
2017-11-18T05:35:44.461Z,-2.51
2017-11-18T05:36:44.325Z,-2.54
2017-11-18T05:37:44.197Z,-2.56
2017-11-18T05:38:44.062Z,-2.63
2017-11-18T05:39:43.932Z,-2.60
2017-11-18T05:40:43.795Z,-2.60
2017-11-18T05:41:43.665Z,-2.63
2017-11-18T05:42:43.531Z,-2.60
2017-11-18T05:43:43.398Z,-2.66
2017-11-18T05:44:43.267Z,-2.54
2017-11-18T05:45:43.130Z,-2.61
2017-11-18T05:46:43.001Z,-2.58
2017-11-18T05:47:42.869Z,-2.57
2017-11-18T05:48:42.737Z,-2.57
2017-11-18T05:49:42.600Z,-2.63
2017-11-18T05:50:42.467Z,-2.54
2017-11-18T05:51:42.337Z,-2.60
2017-11-18T05:52:42.203Z,-2.61
2017-11-18T05:53:42.073Z,-2.63
2017-11-18T05:54:41.936Z,-2.53
2017-11-18T05:55:41.804Z,-2.58
2017-11-18T05:56:41.674Z,-2.58
2017-11-18T05:57:41.541Z,-2.64
2017-11-18T05:58:41.416Z,-2.60
2017-11-18T05:59:41.274Z,-2.54
2017-11-18T06:00:41.140Z,-2.66
2017-11-18T06:01:41.005Z,-2.61
2017-11-18T06:02:40.875Z,-2.56
2017-11-18T06:03:40.752Z,-2.51
2017-11-18T06:04:40.609Z,-2.45
2017-11-18T06:05:40.488Z,-2.50
2017-11-18T06:06:40.344Z,-2.60
2017-11-18T06:07:40.215Z,-2.54
2017-11-18T06:08:40.076Z,-2.63
2017-11-18T06:09:39.945Z,-2.64
2017-11-18T06:10:39.819Z,-2.63
2017-11-18T06:11:39.678Z,-2.60
2017-11-18T06:12:39.546Z,-2.64
2017-11-18T06:13:39.412Z,-2.63
2017-11-18T06:14:39.279Z,-2.63
2017-11-18T06:15:39.149Z,-2.66
2017-11-18T06:16:39.015Z,-2.76
2017-11-18T06:17:38.879Z,-2.76
2017-11-18T06:18:38.749Z,-2.78
2017-11-18T06:19:38.617Z,-2.96
2017-11-18T06:20:38.483Z,-3.00
2017-11-18T06:21:38.350Z,-3.00
2017-11-18T06:22:38.218Z,-2.93
2017-11-18T06:23:38.082Z,-2.86
2017-11-18T06:24:37.954Z,-2.92
2017-11-18T06:25:37.817Z,-2.93
2017-11-18T06:26:37.694Z,-2.86
2017-11-18T06:27:37.553Z,-2.89
2017-11-18T06:28:37.419Z,-2.89
2017-11-18T06:29:37.287Z,-2.82
2017-11-18T06:30:37.156Z,-2.97
2017-11-18T06:31:37.025Z,-2.99
2017-11-18T06:32:36.890Z,-2.97
2017-11-18T06:33:36.758Z,-2.94
2017-11-18T06:34:36.624Z,-2.97
2017-11-18T06:35:36.492Z,-3.04
2017-11-18T06:36:36.360Z,-2.97
2017-11-18T06:37:36.236Z,-2.96
2017-11-18T06:38:36.092Z,-2.93
2017-11-18T06:39:35.958Z,-2.96
2017-11-18T06:40:35.831Z,-2.90
2017-11-18T06:41:35.695Z,-2.94
2017-11-18T06:42:35.561Z,-2.85
2017-11-18T06:43:35.441Z,-2.94
2017-11-18T06:44:35.297Z,-2.86
2017-11-18T06:45:35.163Z,-2.86
2017-11-18T06:46:35.029Z,-2.81
2017-11-18T06:47:34.898Z,-2.74
2017-11-18T06:48:34.766Z,-2.71
2017-11-18T06:49:34.630Z,-2.64
2017-11-18T06:50:34.498Z,-2.66
2017-11-18T06:51:34.366Z,-2.66
2017-11-18T06:52:34.233Z,-2.71
2017-11-18T06:53:34.098Z,-2.71
2017-11-18T06:54:33.966Z,-2.78
2017-11-18T06:55:33.833Z,-2.76
2017-11-18T06:56:33.701Z,-2.78
2017-11-18T06:57:33.566Z,-2.81
2017-11-18T06:58:33.435Z,-2.68
2017-11-18T06:59:33.303Z,-2.66
2017-11-18T07:00:33.170Z,-2.66
2017-11-18T07:01:33.035Z,-2.63
2017-11-18T07:02:32.904Z,-2.61
2017-11-18T07:03:32.774Z,-2.53
2017-11-18T07:04:32.640Z,-2.54
2017-11-18T07:05:32.502Z,-2.58
2017-11-18T07:06:32.382Z,-2.58
2017-11-18T07:07:32.239Z,-2.60
2017-11-18T07:08:32.107Z,-2.54
2017-11-18T07:09:31.972Z,-2.51
2017-11-18T07:10:31.840Z,-2.47
2017-11-18T07:11:31.707Z,-2.48
2017-11-18T07:12:31.572Z,-2.51
2017-11-18T07:13:31.441Z,-2.54
2017-11-18T07:14:31.307Z,-2.54
2017-11-18T07:15:31.176Z,-2.47
2017-11-18T07:16:31.041Z,-2.48
2017-11-18T07:17:30.908Z,-2.51
2017-11-18T07:18:30.777Z,-2.50
2017-11-18T07:19:30.642Z,-2.48
2017-11-18T07:20:30.513Z,-2.54
2017-11-18T07:21:30.376Z,-2.54
2017-11-18T07:22:30.244Z,-2.57
2017-11-18T07:23:30.113Z,-2.47
2017-11-18T07:24:29.979Z,-2.60
2017-11-18T07:25:29.848Z,-2.57
2017-11-18T07:26:29.714Z,-2.63
2017-11-18T07:27:29.580Z,-2.66
2017-11-18T07:28:29.450Z,-2.63
2017-11-18T07:29:29.314Z,-2.68
2017-11-18T07:30:29.183Z,-2.66
2017-11-18T07:31:29.051Z,-2.57
2017-11-18T07:32:28.920Z,-2.66
2017-11-18T07:33:28.786Z,-2.64
2017-11-18T07:34:28.651Z,-2.63
2017-11-18T07:35:28.520Z,-2.64
2017-11-18T07:36:28.394Z,-2.66
2017-11-18T07:37:28.255Z,-2.56
2017-11-18T07:38:28.123Z,-2.58
2017-11-18T07:39:27.994Z,-2.54
2017-11-18T07:40:27.859Z,-2.47
2017-11-18T07:41:27.725Z,-2.60
2017-11-18T07:42:27.591Z,-2.66
2017-11-18T07:43:27.459Z,-2.60
2017-11-18T07:44:27.336Z,-2.58
2017-11-18T07:45:27.192Z,-2.51
2017-11-18T07:46:27.058Z,-2.60
2017-11-18T07:47:26.932Z,-2.53
2017-11-18T07:48:26.794Z,-2.53
2017-11-18T07:49:26.662Z,-2.47
2017-11-18T07:50:26.531Z,-2.51
2017-11-18T07:51:26.397Z,-2.56
2017-11-18T07:52:26.291Z,-2.50
2017-11-18T07:53:26.129Z,-2.50
2017-11-18T07:54:26.000Z,-2.53
2017-11-18T07:55:25.863Z,-2.45
2017-11-18T07:56:25.735Z,-2.40
2017-11-18T07:57:25.599Z,-2.32
2017-11-18T07:58:25.468Z,-2.28
2017-11-18T07:59:25.336Z,-2.28
2017-11-18T08:00:25.204Z,-2.29
2017-11-18T08:01:25.070Z,-2.32
2017-11-18T08:02:24.936Z,-2.29
2017-11-18T08:03:24.806Z,-2.32
2017-11-18T08:04:24.673Z,-2.32
2017-11-18T08:05:24.540Z,-2.33
2017-11-18T08:06:24.408Z,-2.23
2017-11-18T08:07:24.284Z,-2.33
2017-11-18T08:08:24.144Z,-2.20
2017-11-18T08:09:24.011Z,-2.21
2017-11-18T08:10:23.877Z,-2.29
2017-11-18T08:11:23.747Z,-2.20
2017-11-18T08:12:23.615Z,-2.33
2017-11-18T08:13:23.478Z,-2.32
2017-11-18T08:14:23.348Z,-2.28
2017-11-18T08:15:23.214Z,-2.36
2017-11-18T08:16:23.085Z,-2.40
2017-11-18T08:17:22.951Z,-2.29
2017-11-18T08:18:22.819Z,-2.33
2017-11-18T08:19:22.685Z,-2.23
2017-11-18T08:20:22.553Z,-2.29
2017-11-18T08:21:22.420Z,-2.28
2017-11-18T08:22:22.292Z,-2.18
2017-11-18T08:23:22.158Z,-2.20
2017-11-18T08:24:22.030Z,-2.23
2017-11-18T08:25:21.892Z,-2.18
2017-11-18T08:26:21.758Z,-2.33
2017-11-18T08:27:21.626Z,-2.28
2017-11-18T08:28:21.493Z,-2.26
2017-11-18T08:29:21.363Z,-2.23
2017-11-18T08:30:21.227Z,-2.26
2017-11-18T08:31:21.098Z,-2.18
2017-11-18T08:32:20.963Z,-2.26
2017-11-18T08:33:20.830Z,-2.26
2017-11-18T08:34:20.697Z,-2.21
2017-11-18T08:35:20.566Z,-2.24
2017-11-18T08:36:20.435Z,-2.13
2017-11-18T08:37:20.300Z,-2.14
2017-11-18T08:38:20.173Z,-2.21
2017-11-18T08:39:20.037Z,-2.13
2017-11-18T08:40:19.904Z,-2.14
2017-11-18T08:41:19.769Z,-2.10
2017-11-18T08:42:19.651Z,-2.10
2017-11-18T08:43:19.507Z,-2.06
2017-11-18T08:44:19.374Z,-2.03
2017-11-18T08:45:19.242Z,-1.93
2017-11-18T08:46:19.109Z,-1.95
2017-11-18T08:47:18.979Z,-1.95
2017-11-18T08:48:18.844Z,-1.85
2017-11-18T08:49:18.713Z,-1.87
2017-11-18T08:50:18.584Z,-1.85
2017-11-18T08:51:18.448Z,-1.75
2017-11-18T08:52:18.316Z,-1.74
2017-11-18T08:53:18.182Z,-1.66
2017-11-18T08:54:18.049Z,-1.60
2017-11-18T08:55:17.919Z,-1.59
2017-11-18T08:56:17.786Z,-1.56
2017-11-18T08:57:17.656Z,-1.57
2017-11-18T08:58:17.523Z,-1.63
2017-11-18T08:59:17.392Z,-1.54
2017-11-18T09:00:17.258Z,-1.30
2017-11-18T09:01:17.126Z,-1.05
2017-11-18T09:02:16.993Z,-0.62
2017-11-18T09:03:16.862Z,-0.18
2017-11-18T09:04:16.730Z,0.34
2017-11-18T09:05:16.600Z,0.71
2017-11-18T09:06:16.467Z,1.19
2017-11-18T09:07:16.337Z,1.68
2017-11-18T09:08:17.105Z,2.01
2017-11-18T09:09:16.076Z,2.27
2017-11-18T09:10:15.946Z,2.71
2017-11-18T09:11:15.814Z,2.94
2017-11-18T09:12:15.690Z,2.98
2017-11-18T09:13:16.188Z,3.10
2017-11-18T09:14:15.423Z,3.27
2017-11-18T09:15:15.304Z,3.60
2017-11-18T09:16:15.170Z,3.92
2017-11-18T09:17:15.038Z,3.82
2017-11-18T09:18:14.907Z,3.83
2017-11-18T09:19:14.780Z,3.90
2017-11-18T09:20:14.648Z,3.82
2017-11-18T09:21:14.519Z,3.80
2017-11-18T09:22:14.391Z,3.68
2017-11-18T09:23:14.262Z,3.78
2017-11-18T09:24:14.137Z,3.76
2017-11-18T09:25:14.004Z,3.76
2017-11-18T09:26:13.878Z,3.76
2017-11-18T09:27:13.746Z,3.60
2017-11-18T09:28:13.618Z,3.49
2017-11-18T09:29:13.490Z,3.47
2017-11-18T09:30:13.362Z,3.42
2017-11-18T09:31:13.233Z,3.33
2017-11-18T09:32:13.106Z,3.30
2017-11-18T09:33:12.976Z,3.23
2017-11-18T09:34:12.848Z,2.88
2017-11-18T09:35:12.717Z,2.81
2017-11-18T09:36:12.590Z,2.79
2017-11-18T09:37:12.462Z,2.77
2017-11-18T09:38:12.334Z,2.67
2017-11-18T09:39:12.203Z,2.77
2017-11-18T09:40:12.076Z,2.88
2017-11-18T09:41:11.950Z,2.95
2017-11-18T09:42:11.818Z,2.98
2017-11-18T09:43:11.689Z,3.06
2017-11-18T09:44:11.562Z,2.97
2017-11-18T09:45:11.432Z,3.13
2017-11-18T09:46:11.306Z,2.84
2017-11-18T09:47:11.175Z,2.95
2017-11-18T09:48:11.047Z,2.95
2017-11-18T09:49:10.918Z,3.07
2017-11-18T09:50:10.789Z,3.40
2017-11-18T09:51:10.662Z,3.64
2017-11-18T09:52:10.532Z,3.65
2017-11-18T09:53:10.403Z,3.80
2017-11-18T09:54:10.286Z,3.89
2017-11-18T09:55:10.150Z,3.92
2017-11-18T09:56:10.023Z,4.12
2017-11-18T09:57:09.891Z,3.94
2017-11-18T09:58:09.765Z,3.89
2017-11-18T09:59:09.636Z,4.12
2017-11-18T10:00:09.512Z,3.86
2017-11-18T10:01:09.383Z,3.90
2017-11-18T10:02:09.255Z,3.89
2017-11-18T10:03:09.127Z,3.92
2017-11-18T10:04:08.999Z,4.28
2017-11-18T10:05:08.872Z,4.58
2017-11-18T10:06:08.745Z,4.52
2017-11-18T10:07:08.618Z,4.62
2017-11-18T10:08:08.491Z,4.54
2017-11-18T10:09:08.364Z,4.70
2017-11-18T10:10:08.240Z,4.96
2017-11-18T10:11:08.118Z,5.13
2017-11-18T10:12:07.987Z,4.95
2017-11-18T10:13:07.859Z,5.10
2017-11-18T10:14:07.732Z,4.98
2017-11-18T10:15:07.605Z,4.91
2017-11-18T10:16:07.479Z,5.35
2017-11-18T10:17:07.355Z,5.81
2017-11-18T10:18:07.228Z,6.14
2017-11-18T10:19:07.104Z,6.13
2017-11-18T10:20:06.976Z,6.28
2017-11-18T10:21:06.854Z,6.36
2017-11-18T10:22:06.721Z,6.56
2017-11-18T10:23:06.597Z,6.54
2017-11-18T10:24:06.471Z,6.53
2017-11-18T10:25:06.344Z,6.38
2017-11-18T10:26:06.220Z,5.75
2017-11-18T10:27:06.099Z,5.55
2017-11-18T10:28:05.970Z,5.48
2017-11-18T10:29:05.842Z,5.40
2017-11-18T10:30:05.719Z,5.35
2017-11-18T10:31:05.589Z,5.14
2017-11-18T10:32:05.471Z,5.31
2017-11-18T10:33:05.340Z,5.14
2017-11-18T10:34:05.216Z,4.84
2017-11-18T10:35:05.094Z,5.13
2017-11-18T10:36:04.965Z,5.48
2017-11-18T10:37:04.838Z,5.71
2017-11-18T10:38:04.713Z,5.48
2017-11-18T10:39:04.589Z,5.73
2017-11-18T10:40:04.460Z,5.91
2017-11-18T10:41:04.333Z,5.96
2017-11-18T10:42:04.210Z,5.95
2017-11-18T10:43:04.082Z,6.28
2017-11-18T10:44:03.958Z,5.93
2017-11-18T10:45:03.832Z,6.01
2017-11-18T10:46:03.705Z,6.01
2017-11-18T10:47:03.581Z,5.96
2017-11-18T10:48:03.454Z,6.01
2017-11-18T10:49:03.328Z,6.19
2017-11-18T10:50:03.207Z,6.28
2017-11-18T10:51:03.076Z,6.51
2017-11-18T10:52:02.953Z,6.50
2017-11-18T10:53:02.823Z,6.53
2017-11-18T10:54:02.704Z,6.59
2017-11-18T10:55:02.575Z,6.62
2017-11-18T10:56:02.449Z,6.44
2017-11-18T10:57:02.323Z,6.76
2017-11-18T10:58:02.200Z,6.77
2017-11-18T10:59:02.074Z,6.79
2017-11-18T11:00:01.951Z,6.73
2017-11-18T11:01:01.820Z,6.65
2017-11-18T11:02:01.698Z,6.40
2017-11-18T11:03:01.574Z,6.01
2017-11-18T11:04:01.445Z,5.52
2017-11-18T11:05:01.333Z,5.45
2017-11-18T11:06:01.195Z,5.68
2017-11-18T11:07:01.070Z,6.03
2017-11-18T11:08:00.946Z,6.13
2017-11-18T11:09:00.822Z,6.13
2017-11-18T11:10:00.714Z,5.74
2017-11-18T11:11:00.568Z,5.83
2017-11-18T11:12:00.442Z,5.82
2017-11-18T11:13:00.329Z,5.77
2017-11-18T11:14:00.190Z,5.67
2017-11-18T11:15:00.065Z,5.50
2017-11-18T11:15:59.942Z,5.55
2017-11-18T11:16:59.813Z,5.68
2017-11-18T11:17:59.687Z,5.89
2017-11-18T11:18:59.567Z,6.32
2017-11-18T11:19:59.438Z,6.36
2017-11-18T11:20:59.308Z,6.36
2017-11-18T11:21:59.184Z,6.33
2017-11-18T11:22:59.061Z,6.40
2017-11-18T11:23:58.933Z,6.51
2017-11-18T11:24:58.805Z,6.30
2017-11-18T11:25:58.683Z,6.14
2017-11-18T11:26:58.557Z,6.14
2017-11-18T11:27:58.430Z,6.11
2017-11-18T11:28:58.304Z,6.32
2017-11-18T11:29:58.182Z,6.47
2017-11-18T11:30:58.053Z,6.33
2017-11-18T11:31:57.928Z,6.43
2017-11-18T11:32:57.805Z,6.72
2017-11-18T11:33:57.681Z,6.76
2017-11-18T11:34:57.549Z,6.77
2017-11-18T11:35:57.427Z,6.99
2017-11-18T11:36:57.299Z,6.95
2017-11-18T11:37:57.175Z,6.91
2017-11-18T11:38:57.049Z,6.91
2017-11-18T11:39:56.923Z,6.76
2017-11-18T11:40:56.800Z,6.68
2017-11-18T11:41:56.674Z,6.65
2017-11-18T11:42:56.549Z,6.32
2017-11-18T11:43:56.422Z,6.09
2017-11-18T11:44:56.300Z,6.21
2017-11-18T11:45:56.173Z,6.13
2017-11-18T11:46:56.048Z,6.32
2017-11-18T11:47:55.923Z,6.53
2017-11-18T11:48:55.795Z,6.61
2017-11-18T11:49:55.671Z,6.30
2017-11-18T11:50:55.547Z,6.13
2017-11-18T11:51:55.420Z,6.16
2017-11-18T11:52:55.295Z,6.40
2017-11-18T11:53:55.170Z,6.40
2017-11-18T11:54:55.045Z,6.33
2017-11-18T11:55:54.922Z,6.38
2017-11-18T11:56:54.791Z,6.29
2017-11-18T11:57:54.673Z,6.35
2017-11-18T11:58:54.541Z,6.48
2017-11-18T11:59:54.415Z,6.44
2017-11-18T12:00:54.291Z,6.13
2017-11-18T12:01:54.175Z,5.88
2017-11-18T12:02:54.039Z,5.73
2017-11-18T12:03:53.914Z,5.92
2017-11-18T12:04:53.787Z,5.85
2017-11-18T12:05:53.663Z,5.83
2017-11-18T12:06:53.537Z,6.04
2017-11-18T12:07:53.413Z,5.50
2017-11-18T12:08:53.284Z,5.27
2017-11-18T12:09:53.161Z,5.48
2017-11-18T12:10:53.033Z,5.85
2017-11-18T12:11:52.908Z,5.59
2017-11-18T12:12:52.782Z,5.46
2017-11-18T12:13:52.657Z,5.22
2017-11-18T12:14:52.537Z,5.25
2017-11-18T12:15:52.404Z,5.16
2017-11-18T12:16:52.277Z,5.50
2017-11-18T12:17:52.151Z,5.75
2017-11-18T12:18:52.023Z,5.68
2017-11-18T12:19:51.899Z,5.59
2017-11-18T12:20:51.773Z,5.63
2017-11-18T12:21:51.646Z,5.89
2017-11-18T12:22:51.519Z,5.91
2017-11-18T12:23:51.395Z,5.98
2017-11-18T12:24:51.267Z,6.32
2017-11-18T12:25:51.141Z,6.33
2017-11-18T12:26:51.013Z,6.00
2017-11-18T12:27:50.889Z,6.13
2017-11-18T12:28:50.759Z,5.93
2017-11-18T12:29:50.638Z,5.88
2017-11-18T12:30:50.511Z,6.11
2017-11-18T12:31:50.385Z,6.29
2017-11-18T12:32:50.256Z,6.35
2017-11-18T12:33:50.236Z,5.96
2017-11-18T12:34:50.018Z,6.11
2017-11-18T12:35:49.978Z,6.18
2017-11-18T12:36:50.208Z,5.93
2017-11-18T12:37:49.736Z,6.09
2017-11-18T12:38:49.563Z,6.40
2017-11-18T12:39:49.584Z,6.69
2017-11-18T12:40:49.377Z,6.84
2017-11-18T12:41:49.124Z,6.99
2017-11-18T12:42:49.107Z,6.79
2017-11-18T12:43:48.954Z,6.71
2017-11-18T12:44:48.940Z,6.80
2017-11-18T12:45:48.670Z,6.86
2017-11-18T12:46:48.497Z,6.71
2017-11-18T12:47:48.390Z,6.29
2017-11-18T12:48:48.245Z,6.51
2017-11-18T12:49:48.122Z,6.66
2017-11-18T12:50:48.010Z,6.66
2017-11-18T12:51:47.875Z,6.73
2017-11-18T12:52:47.744Z,6.99
2017-11-18T12:53:47.627Z,7.16
2017-11-18T12:54:47.497Z,7.29
2017-11-18T12:55:47.382Z,7.13
2017-11-18T12:56:47.248Z,6.94
2017-11-18T12:57:47.123Z,6.98
2017-11-18T12:58:47.024Z,6.91